Surfside, Florida
Current Conditions -  °F | °C
As of 5:53 AM on Friday 24 Oct 2014 (Local Time) from KOPF Reporting Station
Moderate Rain Moderate Rain  
Wind Chill: 76°   Ceiling: 3500
Heat Index: 76°   Visibility: 10mi
Dew Point: 71°   Wind: 13mph
Humidity: 85%   Direction: 70°ENE
Pressure: 29.84"   Gusts: NA
Location:  25.882°N, 80.1292°W
Report Text: KOPF 240953Z AUTO 07011KT 10SM RA BKN035 OVC044 24/22 A2984 RMK AO2 RAB0856 SLP105 P0004 T02440217
Loading
Personal Weather Stations






























Interactive Weather Map
Tropical Storm Tracking
New forecast layout! Learn more

10-Day Weather Forecast

Advertisements
Track Severe Weather on mobile